Palmetto, Georgia
Current Conditions -  °F | °C
As of 2:53 AM on Friday 28 Nov 2014 (Local Time) from KFFC Reporting Station
Clear Clear  
Wind Chill: 26°   Ceiling: Unl
Heat Index: 31°   Visibility: 10mi
Dew Point: 24°   Wind: 5mph
Humidity: 76%   Direction: 300°WNW
Pressure: 30.39"   Gusts: NA
Location:  33.52°N, 84.67°W
Report Text: KFFC 280753Z AUTO 30004KT 10SM CLR M01/M04 A3039 RMK AO2 SLP297 T10061044
Loading
Personal Weather Stations






























Interactive Weather Map New forecast layout! Learn more

10-Day Weather Forecast

Advertisements
Track Severe Weather on mobile